createdAt,value
2022-12-15T00:01:52.174Z,101.32
2022-12-15T00:07:15.920Z,99.72
2022-12-15T00:12:40.016Z,96.20
2022-12-15T00:18:03.733Z,88.95
2022-12-15T00:23:28.663Z,91.40
2022-12-15T00:28:53.064Z,82.50
2022-12-15T00:34:16.538Z,76.10
2022-12-15T00:39:22.358Z,78.03
2022-12-15T00:44:27.816Z,73.33
2022-12-15T00:49:52.897Z,65.03
2022-12-15T00:55:16.638Z,64.35
2022-12-15T01:00:41.060Z,56.78
2022-12-15T01:06:04.775Z,47.10
2022-12-15T01:11:29.309Z,48.83
2022-12-15T01:16:52.865Z,46.88
2022-12-15T01:21:58.597Z,47.08
2022-12-15T01:27:03.942Z,45.80
2022-12-15T01:32:11.573Z,41.20
2022-12-15T01:37:17.176Z,42.95
2022-12-15T01:42:22.773Z,41.83
2022-12-15T01:47:29.900Z,44.67
2022-12-15T01:52:35.243Z,33.97
2022-12-15T01:57:41.456Z,42.80
2022-12-15T02:02:47.263Z,34.25
2022-12-15T02:07:52.980Z,39.73
2022-12-15T02:13:06.129Z,37.03
2022-12-15T02:18:14.519Z,34.50
2022-12-15T02:23:20.427Z,41.95
2022-12-15T02:28:26.801Z,36.28
2022-12-15T02:38:43.098Z,43.28
2022-12-15T02:43:49.849Z,43.30
2022-12-15T02:49:05.116Z,35.35
2022-12-15T02:54:17.266Z,37.33
2022-12-15T02:59:36.866Z,44.92
2022-12-15T03:04:46.364Z,43.03
2022-12-15T03:09:52.009Z,40.17
2022-12-15T03:14:58.189Z,43.72
2022-12-15T03:20:04.465Z,42.30
2022-12-15T03:25:10.199Z,36.78
2022-12-15T03:30:16.224Z,32.67
2022-12-15T03:35:21.731Z,36.25
2022-12-15T03:40:27.480Z,40.70
2022-12-15T03:45:33.296Z,39.43
2022-12-15T03:50:39.161Z,33.63
2022-12-15T03:55:45.425Z,43.95
2022-12-15T04:05:56.364Z,42.72
2022-12-15T04:11:02.103Z,44.08
2022-12-15T04:16:07.656Z,34.30
2022-12-15T04:21:14.293Z,45.23
2022-12-15T04:26:38.758Z,37.97
2022-12-15T04:32:03.718Z,35.90
2022-12-15T04:37:29.957Z,33.85
2022-12-15T04:42:54.804Z,23.47
2022-12-15T04:48:20.139Z,25.80
2022-12-15T04:53:43.795Z,28.27
2022-12-15T04:59:08.225Z,30.52
2022-12-15T05:04:31.706Z,29.25
2022-12-15T05:09:59.640Z,20.52
2022-12-15T05:15:27.232Z,28.92
2022-12-15T05:20:51.298Z,26.60
2022-12-15T05:26:15.665Z,22.38
2022-12-15T05:31:39.213Z,24.08
2022-12-15T05:36:44.769Z,12.65
2022-12-15T05:41:50.633Z,20.53
2022-12-15T05:46:56.749Z,23.87
2022-12-15T05:52:03.364Z,29.40
2022-12-15T06:02:14.809Z,29.63
2022-12-15T06:07:20.693Z,29.25
2022-12-15T06:12:26.517Z,32.67
2022-12-15T06:17:32.267Z,26.92
2022-12-15T06:22:38.019Z,11.13
2022-12-15T06:27:43.682Z,35.77
2022-12-15T06:32:52.025Z,38.77
2022-12-15T06:37:57.779Z,30.02
2022-12-15T06:43:03.557Z,32.77
2022-12-15T06:48:09.633Z,30.90
2022-12-15T06:53:15.779Z,27.70
2022-12-15T07:03:27.185Z,16.70
2022-12-15T07:08:38.058Z,29.15
2022-12-15T07:13:46.945Z,15.77
2022-12-15T07:18:52.739Z,26.70
2022-12-15T07:23:59.408Z,25.30
2022-12-15T07:29:05.793Z,16.13
2022-12-15T07:34:11.536Z,29.53
2022-12-15T07:39:17.538Z,31.07
2022-12-15T07:44:24.014Z,26.73
2022-12-15T07:49:29.689Z,30.15
2022-12-15T07:54:35.928Z,17.90
2022-12-15T08:04:46.430Z,31.40
2022-12-15T08:09:52.334Z,27.13
2022-12-15T08:15:01.276Z,14.70
2022-12-15T08:20:10.084Z,28.42
2022-12-15T08:25:15.950Z,31.50
2022-12-15T08:30:22.348Z,22.90
2022-12-15T08:40:54.338Z,31.38
2022-12-15T08:46:01.209Z,38.28
2022-12-15T08:51:07.568Z,16.85
2022-12-15T08:56:17.825Z,34.92
2022-12-15T09:01:24.510Z,43.17
2022-12-15T09:06:34.328Z,42.90
2022-12-15T09:11:40.150Z,41.75
2022-12-15T09:16:45.932Z,42.25
2022-12-15T09:21:57.139Z,48.90
2022-12-15T09:27:02.622Z,45.30
2022-12-15T09:32:13.783Z,52.73
2022-12-15T09:37:20.324Z,49.10
2022-12-15T09:42:27.842Z,50.58
2022-12-15T09:47:33.637Z,44.95
2022-12-15T09:52:45.539Z,43.60
2022-12-15T09:57:56.091Z,55.42
2022-12-15T10:03:20.429Z,52.13
2022-12-15T10:08:26.507Z,55.92
2022-12-15T10:13:35.343Z,53.97
2022-12-15T10:18:44.144Z,53.60
2022-12-15T10:23:50.891Z,58.25
2022-12-15T10:29:02.536Z,58.78
2022-12-15T10:34:25.268Z,58.55
2022-12-15T10:39:45.022Z,64.38
2022-12-15T10:44:52.370Z,66.90
2022-12-15T10:49:59.029Z,68.10
2022-12-15T10:55:05.760Z,58.53
2022-12-15T11:00:37.135Z,74.18
2022-12-15T11:05:54.701Z,63.58
2022-12-15T11:11:19.703Z,76.53
2022-12-15T11:16:25.453Z,75.95
2022-12-15T11:21:35.853Z,83.97
2022-12-15T11:26:41.919Z,78.45
2022-12-15T11:31:48.888Z,76.33
2022-12-15T11:37:03.044Z,82.00
2022-12-15T11:42:08.618Z,83.95
2022-12-15T11:47:18.356Z,88.28
2022-12-15T11:52:27.775Z,91.68
2022-12-15T11:57:39.789Z,82.60
2022-12-15T12:02:54.417Z,84.13
2022-12-15T12:08:14.412Z,89.30
2022-12-15T12:13:39.064Z,86.20
2022-12-15T12:18:55.336Z,83.63
2022-12-15T12:24:05.246Z,90.85
2022-12-15T12:29:18.016Z,85.68
2022-12-15T12:34:29.785Z,91.65
2022-12-15T12:39:38.581Z,81.68
2022-12-15T12:44:44.358Z,57.83
2022-12-15T12:49:52.463Z,47.67
2022-12-15T12:55:25.325Z,83.53
2022-12-15T13:00:31.240Z,59.63
2022-12-15T13:05:39.479Z,67.13
2022-12-15T13:10:47.271Z,89.40
2022-12-15T13:16:01.713Z,41.80
2022-12-15T13:21:20.033Z,71.97
2022-12-15T13:26:26.123Z,53.40
2022-12-15T13:31:36.576Z,44.67
2022-12-15T13:36:54.483Z,39.75
2022-12-15T13:47:34.135Z,42.60
2022-12-15T13:53:16.460Z,58.85
2022-12-15T13:58:26.209Z,39.70
2022-12-15T14:03:36.200Z,25.00
2022-12-15T14:08:42.665Z,50.67
2022-12-15T14:13:52.333Z,50.90
2022-12-15T14:19:07.965Z,44.78
2022-12-15T14:24:41.306Z,52.95
2022-12-15T14:29:47.823Z,32.75
2022-12-15T14:35:12.726Z,50.35
2022-12-15T14:40:28.231Z,38.38
2022-12-15T14:45:35.475Z,35.63
2022-12-15T14:50:49.155Z,43.65
2022-12-15T14:55:57.456Z,28.13
2022-12-15T15:01:04.429Z,35.80
2022-12-15T15:06:22.752Z,26.60
2022-12-15T15:11:31.028Z,42.03
2022-12-15T15:16:40.667Z,34.75
2022-12-15T15:21:49.083Z,43.60
2022-12-15T15:26:55.860Z,40.58
2022-12-15T15:32:18.140Z,36.63
2022-12-15T15:37:25.934Z,48.45
2022-12-15T15:42:32.825Z,38.70
2022-12-15T15:47:39.898Z,50.03
2022-12-15T15:52:46.471Z,45.47
2022-12-15T15:57:52.481Z,52.85
2022-12-15T16:02:58.839Z,56.40
2022-12-15T16:13:09.830Z,49.85
2022-12-15T16:18:15.288Z,53.57
2022-12-15T16:23:30.828Z,64.63
2022-12-15T16:28:36.845Z,58.97
2022-12-15T16:33:42.373Z,60.85
2022-12-15T16:38:47.939Z,57.30
2022-12-15T16:43:57.365Z,63.40
2022-12-15T16:49:02.808Z,63.90
2022-12-15T16:54:08.741Z,61.03
2022-12-15T16:59:36.051Z,64.47
2022-12-15T17:04:42.496Z,66.25
2022-12-15T17:09:48.641Z,67.72
2022-12-15T17:20:30.731Z,68.45
2022-12-15T17:25:53.688Z,69.05
2022-12-15T17:30:54.321Z,69.70
2022-12-15T17:36:03.572Z,72.60
2022-12-15T17:41:08.917Z,73.05
2022-12-15T17:46:15.025Z,75.60
2022-12-15T17:51:22.438Z,77.88
2022-12-15T17:56:27.935Z,79.80
2022-12-15T18:01:34.344Z,84.10
2022-12-15T18:06:41.164Z,83.22
2022-12-15T18:11:48.234Z,78.65
2022-12-15T18:16:53.980Z,80.13
2022-12-15T18:22:00.036Z,78.53
2022-12-15T18:27:13.226Z,76.13
2022-12-15T18:32:19.554Z,82.95
2022-12-15T18:42:30.261Z,78.97
2022-12-15T18:47:35.889Z,83.13
2022-12-15T18:52:41.331Z,74.75
2022-12-15T18:57:46.646Z,91.15
2022-12-15T19:02:52.964Z,93.63
2022-12-15T19:08:06.165Z,81.43
2022-12-15T19:13:15.230Z,89.57
2022-12-15T19:18:40.232Z,88.45
2022-12-15T19:23:46.161Z,86.88
2022-12-15T19:28:51.578Z,84.13
2022-12-15T19:33:57.005Z,82.80
2022-12-15T19:39:03.086Z,83.70
2022-12-15T19:44:16.199Z,83.63
2022-12-15T19:49:21.933Z,90.03
2022-12-15T19:54:27.356Z,96.27
2022-12-15T19:59:32.920Z,92.10
2022-12-15T20:04:39.007Z,100.90
2022-12-15T20:09:44.358Z,94.00
2022-12-15T20:14:50.244Z,102.18
2022-12-15T20:19:56.457Z,94.90
2022-12-15T20:25:03.480Z,99.38
2022-12-15T20:30:09.763Z,105.35
2022-12-15T20:35:16.686Z,111.53
2022-12-15T20:40:26.526Z,101.78
2022-12-15T20:45:31.938Z,108.25
2022-12-15T20:50:42.577Z,103.30
2022-12-15T20:55:49.440Z,105.10
2022-12-15T21:00:56.290Z,103.25
2022-12-15T21:06:01.972Z,102.93
2022-12-15T21:11:30.264Z,100.70
2022-12-15T21:16:35.925Z,94.07
2022-12-15T21:21:51.697Z,98.10
2022-12-15T21:26:58.183Z,87.60
2022-12-15T21:32:03.599Z,85.90
2022-12-15T21:37:24.638Z,82.50
2022-12-15T21:42:30.106Z,84.68
2022-12-15T21:47:53.450Z,77.32
2022-12-15T21:53:00.831Z,85.75
2022-12-15T21:58:12.481Z,82.07
2022-12-15T22:03:18.019Z,75.35
2022-12-15T22:08:24.541Z,88.50
2022-12-15T22:13:33.893Z,75.38
2022-12-15T22:18:39.613Z,75.05
2022-12-15T22:23:45.252Z,76.30
2022-12-15T22:28:51.591Z,88.55
2022-12-15T22:33:57.677Z,74.63
2022-12-15T22:39:08.087Z,75.97
2022-12-15T22:44:19.288Z,52.95
2022-12-15T22:49:26.694Z,98.90
2022-12-15T22:54:37.211Z,101.93
2022-12-15T22:59:50.680Z,114.90
2022-12-15T23:04:57.256Z,101.05
2022-12-15T23:10:21.342Z,116.97
2022-12-15T23:15:45.501Z,118.90
2022-12-15T23:20:53.013Z,114.22
2022-12-15T23:26:01.091Z,113.55
2022-12-15T23:36:12.346Z,103.15
2022-12-15T23:41:19.357Z,86.88
2022-12-15T23:46:25.330Z,86.47
2022-12-15T23:51:30.997Z,86.00
2022-12-15T23:56:36.384Z,87.88
